sensor_id;sensor_type;location;lat;lon;timestamp;pressure;altitude;pressure_sealevel;temperature;humidity
65553;BME280;72126;51.560;14.368;2023-11-21T00:01:29;99514.44;;;13.92;65.71
65553;BME280;72126;51.560;14.368;2023-11-21T00:03:54;99514.44;;;13.92;65.69
65553;BME280;72126;51.560;14.368;2023-11-21T00:06:22;99514.44;;;13.92;65.52
65553;BME280;72126;51.560;14.368;2023-11-21T00:08:47;99515.41;;;13.91;65.87
65553;BME280;72126;51.560;14.368;2023-11-21T00:11:12;99514.44;;;13.92;65.63
65553;BME280;72126;51.560;14.368;2023-11-21T00:13:38;99516.44;;;13.90;65.83
65553;BME280;72126;51.560;14.368;2023-11-21T00:16:03;99512.78;;;13.91;66.00
65553;BME280;72126;51.560;14.368;2023-11-21T00:18:28;99524.34;;;13.90;65.97
65553;BME280;72126;51.560;14.368;2023-11-21T00:20:54;99518.25;;;13.89;65.70
65553;BME280;72126;51.560;14.368;2023-11-21T00:23:19;99522.50;;;13.90;65.74
65553;BME280;72126;51.560;14.368;2023-11-21T00:25:44;99521.69;;;13.90;65.88
65553;BME280;72126;51.560;14.368;2023-11-21T00:28:09;99527.78;;;13.90;65.58
65553;BME280;72126;51.560;14.368;2023-11-21T00:30:34;99523.53;;;13.89;65.78
65553;BME280;72126;51.560;14.368;2023-11-21T00:33:00;99533.03;;;13.90;65.87
65553;BME280;72126;51.560;14.368;2023-11-21T00:35:25;99531.41;;;13.89;65.65
65553;BME280;72126;51.560;14.368;2023-11-21T00:37:50;99531.41;;;13.89;65.91
65553;BME280;72126;51.560;14.368;2023-11-21T00:40:16;99529.78;;;13.88;65.58
65553;BME280;72126;51.560;14.368;2023-11-21T00:42:41;99531.63;;;13.88;65.89
65553;BME280;72126;51.560;14.368;2023-11-21T00:45:07;99529.00;;;13.88;65.53
65553;BME280;72126;51.560;14.368;2023-11-21T00:47:32;99530.00;;;13.87;65.97
65553;BME280;72126;51.560;14.368;2023-11-21T00:49:58;99528.19;;;13.87;65.77
65553;BME280;72126;51.560;14.368;2023-11-21T00:52:23;99540.31;;;13.88;65.90
65553;BME280;72126;51.560;14.368;2023-11-21T00:54:48;99530.81;;;13.87;65.75
65553;BME280;72126;51.560;14.368;2023-11-21T00:57:14;99532.63;;;13.87;65.84
65553;BME280;72126;51.560;14.368;2023-11-21T00:59:39;99537.91;;;13.87;65.62
65553;BME280;72126;51.560;14.368;2023-11-21T01:02:04;99537.91;;;13.87;65.89
65553;BME280;72126;51.560;14.368;2023-11-21T01:04:29;99538.69;;;13.87;65.57
65553;BME280;72126;51.560;14.368;2023-11-21T01:06:54;99543.16;;;13.87;65.49
65553;BME280;72126;51.560;14.368;2023-11-21T01:09:20;99543.16;;;13.87;65.78
65553;BME280;72126;51.560;14.368;2023-11-21T01:11:45;99545.97;;;13.85;65.50
65553;BME280;72126;51.560;14.368;2023-11-21T01:14:10;99549.41;;;13.86;65.74
65553;BME280;72126;51.560;14.368;2023-11-21T01:16:35;99546.75;;;13.86;65.62
65553;BME280;72126;51.560;14.368;2023-11-21T01:19:00;99552.03;;;13.86;65.78
65553;BME280;72126;51.560;14.368;2023-11-21T01:21:26;99545.97;;;13.85;65.66
65553;BME280;72126;51.560;14.368;2023-11-21T01:23:51;99549.41;;;13.86;65.53
65553;BME280;72126;51.560;14.368;2023-11-21T01:26:16;99549.41;;;13.86;65.58
65553;BME280;72126;51.560;14.368;2023-11-21T01:28:41;99555.50;;;13.86;65.67
65553;BME280;72126;51.560;14.368;2023-11-21T01:31:06;99551.22;;;13.85;65.74
65553;BME280;72126;51.560;14.368;2023-11-21T01:33:32;99552.03;;;13.86;65.87
65553;BME280;72126;51.560;14.368;2023-11-21T01:35:57;99555.66;;;13.85;65.72
65553;BME280;72126;51.560;14.368;2023-11-21T01:38:22;99562.75;;;13.84;65.57
65553;BME280;72126;51.560;14.368;2023-11-21T01:40:47;99561.75;;;13.85;65.99
65553;BME280;72126;51.560;14.368;2023-11-21T01:43:13;99568.03;;;13.84;65.80
65553;BME280;72126;51.560;14.368;2023-11-21T01:45:38;99557.50;;;13.84;65.67
65553;BME280;72126;51.560;14.368;2023-11-21T01:48:03;99566.19;;;13.85;65.49
65553;BME280;72126;51.560;14.368;2023-11-21T01:50:28;99573.28;;;13.84;65.88
65553;BME280;72126;51.560;14.368;2023-11-21T01:52:54;99569.03;;;13.83;65.72
65553;BME280;72126;51.560;14.368;2023-11-21T01:55:20;99571.66;;;13.83;65.55
65553;BME280;72126;51.560;14.368;2023-11-21T01:57:46;99570.84;;;13.83;65.40
65553;BME280;72126;51.560;14.368;2023-11-21T02:00:12;99575.91;;;13.84;65.54
65553;BME280;72126;51.560;14.368;2023-11-21T02:02:37;99578.75;;;13.83;65.79
65553;BME280;72126;51.560;14.368;2023-11-21T02:05:02;99582.19;;;13.83;65.79
65553;BME280;72126;51.560;14.368;2023-11-21T02:07:28;99575.31;;;13.82;65.45
65553;BME280;72126;51.560;14.368;2023-11-21T02:09:53;99575.31;;;13.82;65.78
65553;BME280;72126;51.560;14.368;2023-11-21T02:12:18;99579.56;;;13.83;65.74
65553;BME280;72126;51.560;14.368;2023-11-21T02:14:43;99578.75;;;13.83;65.67
65553;BME280;72126;51.560;14.368;2023-11-21T02:17:09;99584.00;;;13.83;65.57
65553;BME280;72126;51.560;14.368;2023-11-21T02:19:34;99572.69;;;13.82;65.47
65553;BME280;72126;51.560;14.368;2023-11-21T02:21:59;99576.13;;;13.83;65.59
65553;BME280;72126;51.560;14.368;2023-11-21T02:24:25;99574.50;;;13.82;65.46
65553;BME280;72126;51.560;14.368;2023-11-21T02:26:50;99572.69;;;13.82;65.56
65553;BME280;72126;51.560;14.368;2023-11-21T02:29:16;99573.69;;;13.81;65.55
65553;BME280;72126;51.560;14.368;2023-11-21T02:31:41;99570.25;;;13.81;65.66
65553;BME280;72126;51.560;14.368;2023-11-21T02:34:06;99574.66;;;13.80;65.64
65553;BME280;72126;51.560;14.368;2023-11-21T02:36:31;99573.69;;;13.81;65.34
65553;BME280;72126;51.560;14.368;2023-11-21T02:38:56;99584.38;;;13.80;65.65
65553;BME280;72126;51.560;14.368;2023-11-21T02:41:21;99576.31;;;13.81;65.68
65553;BME280;72126;51.560;14.368;2023-11-21T02:43:47;99577.28;;;13.80;65.71
65553;BME280;72126;51.560;14.368;2023-11-21T02:46:12;99578.31;;;13.79;65.68
65553;BME280;72126;51.560;14.368;2023-11-21T02:48:37;99579.31;;;13.78;65.38
65553;BME280;72126;51.560;14.368;2023-11-21T02:51:02;99576.50;;;13.80;65.58
65553;BME280;72126;51.560;14.368;2023-11-21T02:53:28;99579.31;;;13.78;65.32
65553;BME280;72126;51.560;14.368;2023-11-21T02:55:53;99578.31;;;13.79;65.79
65553;BME280;72126;51.560;14.368;2023-11-21T02:58:18;99576.69;;;13.78;65.37
65553;BME280;72126;51.560;14.368;2023-11-21T03:00:43;99576.69;;;13.78;65.75
65553;BME280;72126;51.560;14.368;2023-11-21T03:03:08;99576.69;;;13.78;65.26
65553;BME280;72126;51.560;14.368;2023-11-21T03:05:33;99576.69;;;13.78;65.35
65553;BME280;72126;51.560;14.368;2023-11-21T03:07:59;99576.69;;;13.78;65.53
65553;BME280;72126;51.560;14.368;2023-11-21T03:10:24;99578.50;;;13.77;65.80
65553;BME280;72126;51.560;14.368;2023-11-21T03:12:49;99580.34;;;13.77;65.40
65553;BME280;72126;51.560;14.368;2023-11-21T03:15:14;99582.34;;;13.75;65.41
65553;BME280;72126;51.560;14.368;2023-11-21T03:17:39;99579.53;;;13.76;65.80
65553;BME280;72126;51.560;14.368;2023-11-21T03:20:05;99582.97;;;13.77;65.74
65553;BME280;72126;51.560;14.368;2023-11-21T03:22:30;99588.22;;;13.77;65.45
65553;BME280;72126;51.560;14.368;2023-11-21T03:24:56;99589.25;;;13.76;65.28
65553;BME280;72126;51.560;14.368;2023-11-21T03:27:21;99593.50;;;13.77;65.52
65553;BME280;72126;51.560;14.368;2023-11-21T03:29:47;99591.06;;;13.75;65.67
65553;BME280;72126;51.560;14.368;2023-11-21T03:32:13;99595.31;;;13.76;65.89
65553;BME280;72126;51.560;14.368;2023-11-21T03:34:53;99593.69;;;13.75;65.62
65553;BME280;72126;51.560;14.368;2023-11-21T03:37:19;99593.69;;;13.75;65.67
65553;BME280;72126;51.560;14.368;2023-11-21T03:39:44;99594.66;;;13.74;65.39
65553;BME280;72126;51.560;14.368;2023-11-21T03:42:10;99598.94;;;13.75;65.55
65553;BME280;72126;51.560;14.368;2023-11-21T03:44:35;99592.88;;;13.75;65.77
65553;BME280;72126;51.560;14.368;2023-11-21T03:47:00;99600.78;;;13.75;65.48
65553;BME280;72126;51.560;14.368;2023-11-21T03:49:25;99601.75;;;13.74;65.55
65553;BME280;72126;51.560;14.368;2023-11-21T03:51:50;99605.19;;;13.74;65.51
65553;BME280;72126;51.560;14.368;2023-11-21T03:54:15;99599.13;;;13.74;65.56
65553;BME280;72126;51.560;14.368;2023-11-21T03:56:41;99604.38;;;13.74;65.62
65553;BME280;72126;51.560;14.368;2023-11-21T03:59:06;99601.75;;;13.74;65.52
65553;BME280;72126;51.560;14.368;2023-11-21T04:01:31;99608.84;;;13.73;65.64
65553;BME280;72126;51.560;14.368;2023-11-21T04:03:56;99604.38;;;13.74;65.43
65553;BME280;72126;51.560;14.368;2023-11-21T04:06:21;99606.19;;;13.73;65.33
65553;BME280;72126;51.560;14.368;2023-11-21T04:08:46;99611.47;;;13.73;65.64
65553;BME280;72126;51.560;14.368;2023-11-21T04:11:12;99606.19;;;13.73;65.41
65553;BME280;72126;51.560;14.368;2023-11-21T04:13:40;99618.53;;;13.73;65.58
65553;BME280;72126;51.560;14.368;2023-11-21T04:16:06;99615.91;;;13.73;65.37
65553;BME280;72126;51.560;14.368;2023-11-21T04:18:31;99617.75;;;13.72;65.97
65553;BME280;72126;51.560;14.368;2023-11-21T04:20:57;99614.28;;;13.72;65.65
65553;BME280;72126;51.560;14.368;2023-11-21T04:23:22;99615.91;;;13.73;65.68
65553;BME280;72126;51.560;14.368;2023-11-21T04:25:47;99616.94;;;13.72;65.69
65553;BME280;72126;51.560;14.368;2023-11-21T04:28:12;99615.91;;;13.73;65.42
65553;BME280;72126;51.560;14.368;2023-11-21T04:30:37;99622.19;;;13.72;65.38
65553;BME280;72126;51.560;14.368;2023-11-21T04:33:02;99622.19;;;13.72;65.53
65553;BME280;72126;51.560;14.368;2023-11-21T04:35:28;99619.56;;;13.72;65.53
65553;BME280;72126;51.560;14.368;2023-11-21T04:37:53;99621.38;;;13.71;65.18
65553;BME280;72126;51.560;14.368;2023-11-21T04:40:18;99623.19;;;13.71;65.35
65553;BME280;72126;51.560;14.368;2023-11-21T04:42:43;99630.06;;;13.72;65.36
65553;BME280;72126;51.560;14.368;2023-11-21T04:45:09;99631.91;;;13.71;65.34
65553;BME280;72126;51.560;14.368;2023-11-21T04:47:35;99634.53;;;13.71;65.49
65553;BME280;72126;51.560;14.368;2023-11-21T04:50:00;99631.91;;;13.71;65.41
65553;BME280;72126;51.560;14.368;2023-11-21T04:52:25;99632.91;;;13.70;65.32
65553;BME280;72126;51.560;14.368;2023-11-21T04:54:51;99638.16;;;13.70;65.30
65553;BME280;72126;51.560;14.368;2023-11-21T04:57:16;99635.53;;;13.70;65.38
65553;BME280;72126;51.560;14.368;2023-11-21T04:59:41;99638.16;;;13.70;65.48
65553;BME280;72126;51.560;14.368;2023-11-21T05:02:06;99635.53;;;13.70;65.44
65553;BME280;72126;51.560;14.368;2023-11-21T05:04:31;99636.56;;;13.69;65.64
65553;BME280;72126;51.560;14.368;2023-11-21T05:06:56;99634.72;;;13.70;65.30
65553;BME280;72126;51.560;14.368;2023-11-21T05:09:22;99638.34;;;13.69;65.72
65553;BME280;72126;51.560;14.368;2023-11-21T05:11:47;99635.72;;;13.69;65.47
65553;BME280;72126;51.560;14.368;2023-11-21T05:14:12;99637.53;;;13.68;65.60
65553;BME280;72126;51.560;14.368;2023-11-21T05:16:37;99641.81;;;13.69;65.46
65553;BME280;72126;51.560;14.368;2023-11-21T05:19:02;99646.22;;;13.69;65.39
65553;BME280;72126;51.560;14.368;2023-11-21T05:21:28;99647.06;;;13.69;65.48
65553;BME280;72126;51.560;14.368;2023-11-21T05:23:53;99648.88;;;13.69;65.15
65553;BME280;72126;51.560;14.368;2023-11-21T05:26:18;99659.38;;;13.69;65.15
65553;BME280;72126;51.560;14.368;2023-11-21T05:28:43;99661.19;;;13.68;65.53
65553;BME280;72126;51.560;14.368;2023-11-21T05:31:09;99662.00;;;13.69;65.24
65553;BME280;72126;51.560;14.368;2023-11-21T05:33:34;99660.41;;;13.68;65.45
65553;BME280;72126;51.560;14.368;2023-11-21T05:35:59;99662.22;;;13.67;65.38
65553;BME280;72126;51.560;14.368;2023-11-21T05:38:24;99662.22;;;13.67;65.54
65553;BME280;72126;51.560;14.368;2023-11-21T05:40:49;99662.22;;;13.67;65.55
65553;BME280;72126;51.560;14.368;2023-11-21T05:43:14;99664.84;;;13.67;65.58
65553;BME280;72126;51.560;14.368;2023-11-21T05:45:40;99662.41;;;13.66;65.72
65553;BME280;72126;51.560;14.368;2023-11-21T05:48:05;99664.03;;;13.67;65.60
65553;BME280;72126;51.560;14.368;2023-11-21T05:50:30;99661.41;;;13.67;65.26
65553;BME280;72126;51.560;14.368;2023-11-21T05:52:55;99671.72;;;13.68;65.44
65553;BME280;72126;51.560;14.368;2023-11-21T05:55:22;99668.47;;;13.66;65.20
65553;BME280;72126;51.560;14.368;2023-11-21T05:57:47;99674.56;;;13.67;65.41
65553;BME280;72126;51.560;14.368;2023-11-21T06:00:13;99670.09;;;13.67;65.33
65553;BME280;72126;51.560;14.368;2023-11-21T06:02:42;99671.94;;;13.67;65.40
65553;BME280;72126;51.560;14.368;2023-11-21T06:05:08;99684.28;;;13.66;65.54
65553;BME280;72126;51.560;14.368;2023-11-21T06:07:33;99679.00;;;13.66;65.60
65553;BME280;72126;51.560;14.368;2023-11-21T06:09:58;99683.47;;;13.66;65.49
65553;BME280;72126;51.560;14.368;2023-11-21T06:12:24;99691.34;;;13.66;65.48
65553;BME280;72126;51.560;14.368;2023-11-21T06:14:49;99696.59;;;13.66;65.55
65553;BME280;72126;51.560;14.368;2023-11-21T06:17:14;99691.34;;;13.66;65.31
65553;BME280;72126;51.560;14.368;2023-11-21T06:19:39;99694.19;;;13.64;65.16
65553;BME280;72126;51.560;14.368;2023-11-21T06:22:04;99709.75;;;13.66;65.15
65553;BME280;72126;51.560;14.368;2023-11-21T06:24:29;99691.91;;;13.61;65.61
65553;BME280;72126;51.560;14.368;2023-11-21T06:26:55;99698.63;;;13.64;65.44
65553;BME280;72126;51.560;14.368;2023-11-21T06:29:20;99702.88;;;13.65;65.58
65553;BME280;72126;51.560;14.368;2023-11-21T06:31:45;99708.13;;;13.65;65.13
65553;BME280;72126;51.560;14.368;2023-11-21T06:34:10;99719.47;;;13.65;65.33
65553;BME280;72126;51.560;14.368;2023-11-21T06:36:35;99720.47;;;13.64;65.16
65553;BME280;72126;51.560;14.368;2023-11-21T06:39:01;99723.91;;;13.65;65.52
65553;BME280;72126;51.560;14.368;2023-11-21T06:41:26;99726.56;;;13.65;65.46
65553;BME280;72126;51.560;14.368;2023-11-21T06:43:51;99735.44;;;13.64;65.38
65553;BME280;72126;51.560;14.368;2023-11-21T06:46:16;99738.09;;;13.64;65.69
65553;BME280;72126;51.560;14.368;2023-11-21T06:48:44;99736.44;;;13.63;65.21
65553;BME280;72126;51.560;14.368;2023-11-21T06:51:10;99747.75;;;13.63;65.67
65553;BME280;72126;51.560;14.368;2023-11-21T06:53:37;99737.25;;;13.63;65.35
65553;BME280;72126;51.560;14.368;2023-11-21T06:56:03;99752.22;;;13.63;65.44
65553;BME280;72126;51.560;14.368;2023-11-21T06:58:28;99753.03;;;13.63;65.15
65553;BME280;72126;51.560;14.368;2023-11-21T07:00:53;99748.78;;;13.62;65.42
65553;BME280;72126;51.560;14.368;2023-11-21T07:03:18;99759.28;;;13.62;65.51
65553;BME280;72126;51.560;14.368;2023-11-21T07:05:43;99758.28;;;13.63;65.51
65553;BME280;72126;51.560;14.368;2023-11-21T07:08:09;99765.34;;;13.63;65.07
65553;BME280;72126;51.560;14.368;2023-11-21T07:10:35;99761.91;;;13.62;65.52
65553;BME280;72126;51.560;14.368;2023-11-21T07:13:00;99761.91;;;13.62;65.39
65553;BME280;72126;51.560;14.368;2023-11-21T07:15:25;99769.81;;;13.62;65.45
65553;BME280;72126;51.560;14.368;2023-11-21T07:17:50;99780.31;;;13.62;65.63
65553;BME280;72126;51.560;14.368;2023-11-21T07:20:16;99782.97;;;13.62;65.63
65553;BME280;72126;51.560;14.368;2023-11-21T07:22:41;99776.06;;;13.61;65.27
65553;BME280;72126;51.560;14.368;2023-11-21T07:25:06;99785.59;;;13.62;65.33
65553;BME280;72126;51.560;14.368;2023-11-21T07:27:31;99785.78;;;13.61;65.30
65553;BME280;72126;51.560;14.368;2023-11-21T07:29:57;99796.91;;;13.63;65.07
65553;BME280;72126;51.560;14.368;2023-11-21T07:32:22;99800.56;;;13.62;65.55
65553;BME280;72126;51.560;14.368;2023-11-21T07:34:47;99803.19;;;13.62;65.53
65553;BME280;72126;51.560;14.368;2023-11-21T07:37:12;99810.28;;;13.61;65.45
65553;BME280;72126;51.560;14.368;2023-11-21T07:39:37;99805.00;;;13.61;65.45
65553;BME280;72126;51.560;14.368;2023-11-21T07:42:03;99817.34;;;13.61;65.58
65553;BME280;72126;51.560;14.368;2023-11-21T07:44:28;99818.16;;;13.61;65.37
65553;BME280;72126;51.560;14.368;2023-11-21T07:46:54;99810.47;;;13.60;65.56
65553;BME280;72126;51.560;14.368;2023-11-21T07:49:19;99823.41;;;13.61;64.99
65553;BME280;72126;51.560;14.368;2023-11-21T07:51:45;99825.25;;;13.61;65.56
65553;BME280;72126;51.560;14.368;2023-11-21T07:54:10;99822.00;;;13.59;65.07
65553;BME280;72126;51.560;14.368;2023-11-21T07:56:35;99827.06;;;13.60;65.12
65553;BME280;72126;51.560;14.368;2023-11-21T07:59:00;99826.25;;;13.60;65.34
65553;BME280;72126;51.560;14.368;2023-11-21T08:01:25;99831.50;;;13.60;65.07
65553;BME280;72126;51.560;14.368;2023-11-21T08:03:50;99837.59;;;13.60;65.25
65553;BME280;72126;51.560;14.368;2023-11-21T08:06:16;99836.75;;;13.60;65.54
65553;BME280;72126;51.560;14.368;2023-11-21T08:08:42;99843.03;;;13.59;65.04
65553;BME280;72126;51.560;14.368;2023-11-21T08:11:07;99844.66;;;13.60;65.16
65553;BME280;72126;51.560;14.368;2023-11-21T08:13:32;99850.13;;;13.58;64.95
65553;BME280;72126;51.560;14.368;2023-11-21T08:15:58;99844.66;;;13.60;65.13
65553;BME280;72126;51.560;14.368;2023-11-21T08:18:23;99847.47;;;13.58;65.39
65553;BME280;72126;51.560;14.368;2023-11-21T08:20:48;99848.28;;;13.59;65.32
65553;BME280;72126;51.560;14.368;2023-11-21T08:23:15;99855.38;;;13.58;65.20
65553;BME280;72126;51.560;14.368;2023-11-21T08:25:40;99861.44;;;13.59;65.47
65553;BME280;72126;51.560;14.368;2023-11-21T08:28:05;99863.44;;;13.57;65.15
65553;BME280;72126;51.560;14.368;2023-11-21T08:30:30;99862.53;;;13.49;65.13
65553;BME280;72126;51.560;14.368;2023-11-21T08:32:56;99871.25;;;13.50;65.38
65553;BME280;72126;51.560;14.368;2023-11-21T08:35:21;99872.44;;;13.47;65.39
65553;BME280;72126;51.560;14.368;2023-11-21T08:37:46;99876.25;;;13.45;64.85
65553;BME280;72126;51.560;14.368;2023-11-21T08:40:11;99880.69;;;13.44;65.25
65553;BME280;72126;51.560;14.368;2023-11-21T08:42:37;99880.88;;;13.43;64.86
65553;BME280;72126;51.560;14.368;2023-11-21T08:45:02;99880.06;;;13.42;65.11
65553;BME280;72126;51.560;14.368;2023-11-21T08:47:27;99880.88;;;13.43;65.07
65553;BME280;72126;51.560;14.368;2023-11-21T08:49:52;99878.25;;;13.43;64.96
65553;BME280;72126;51.560;14.368;2023-11-21T08:52:18;99875.63;;;13.43;64.67
65553;BME280;72126;51.560;14.368;2023-11-21T08:54:43;99885.94;;;13.44;64.70
65553;BME280;72126;51.560;14.368;2023-11-21T08:57:08;99884.31;;;13.43;64.44
65553;BME280;72126;51.560;14.368;2023-11-21T08:59:33;99879.06;;;13.43;64.67
65553;BME280;72126;51.560;14.368;2023-11-21T09:01:59;99883.50;;;13.43;64.96
65553;BME280;72126;51.560;14.368;2023-11-21T09:04:24;99880.88;;;13.43;64.46
65553;BME280;72126;51.560;14.368;2023-11-21T09:06:49;99885.13;;;13.44;64.44
65553;BME280;72126;51.560;14.368;2023-11-21T09:09:14;99896.66;;;13.43;64.33
65553;BME280;72126;51.560;14.368;2023-11-21T09:11:39;99902.72;;;13.43;64.50
65553;BME280;72126;51.560;14.368;2023-11-21T09:14:04;99905.34;;;13.43;64.27
65553;BME280;72126;51.560;14.368;2023-11-21T09:16:30;99906.16;;;13.44;64.63
65553;BME280;72126;51.560;14.368;2023-11-21T09:18:55;99916.69;;;13.44;64.51
65553;BME280;72126;51.560;14.368;2023-11-21T09:21:20;99912.25;;;13.44;64.38
65553;BME280;72126;51.560;14.368;2023-11-21T09:23:45;99916.69;;;13.44;64.26
65553;BME280;72126;51.560;14.368;2023-11-21T09:26:10;99921.94;;;13.44;64.60
65553;BME280;72126;51.560;14.368;2023-11-21T09:28:36;99925.38;;;13.44;64.33
65553;BME280;72126;51.560;14.368;2023-11-21T09:31:01;99929.03;;;13.43;64.63
65553;BME280;72126;51.560;14.368;2023-11-21T09:33:26;99921.94;;;13.44;64.59
65553;BME280;72126;51.560;14.368;2023-11-21T09:35:51;99930.66;;;13.44;64.50
65553;BME280;72126;51.560;14.368;2023-11-21T09:38:17;99935.09;;;13.44;64.75
65553;BME280;72126;51.560;14.368;2023-11-21T09:40:42;99936.91;;;13.43;64.58
65553;BME280;72126;51.560;14.368;2023-11-21T09:43:09;99931.66;;;13.43;64.28
65553;BME280;72126;51.560;14.368;2023-11-21T09:45:40;99936.91;;;13.43;64.52
65553;BME280;72126;51.560;14.368;2023-11-21T09:48:07;99930.84;;;13.43;64.37
65553;BME280;72126;51.560;14.368;2023-11-21T09:50:33;99930.84;;;13.43;64.53
65553;BME280;72126;51.560;14.368;2023-11-21T09:53:20;99936.09;;;13.43;64.65
65553;BME280;72126;51.560;14.368;2023-11-21T09:55:47;99944.81;;;13.43;64.62
65553;BME280;72126;51.560;14.368;2023-11-21T09:58:13;99947.44;;;13.43;64.36
65553;BME280;72126;51.560;14.368;2023-11-21T10:00:46;99957.13;;;13.43;64.45
65553;BME280;72126;51.560;14.368;2023-11-21T10:03:12;99955.31;;;13.43;64.48
65553;BME280;72126;51.560;14.368;2023-11-21T10:05:38;99954.50;;;13.43;64.13
65553;BME280;72126;51.560;14.368;2023-11-21T10:08:11;99954.50;;;13.43;64.19
65553;BME280;72126;51.560;14.368;2023-11-21T10:10:37;99956.31;;;13.42;64.08
65553;BME280;72126;51.560;14.368;2023-11-21T10:13:06;99962.41;;;13.43;64.05
65553;BME280;72126;51.560;14.368;2023-11-21T10:15:33;99957.13;;;13.43;64.06
65553;BME280;72126;51.560;14.368;2023-11-21T10:17:59;99954.50;;;13.43;63.99
65553;BME280;72126;51.560;14.368;2023-11-21T10:20:24;99956.31;;;13.42;64.17
65553;BME280;72126;51.560;14.368;2023-11-21T10:22:49;99945.00;;;13.42;64.04
65553;BME280;72126;51.560;14.368;2023-11-21T10:25:15;99962.41;;;13.43;64.20
65553;BME280;72126;51.560;14.368;2023-11-21T10:27:41;99966.84;;;13.42;64.59
65553;BME280;72126;51.560;14.368;2023-11-21T10:30:07;99972.91;;;13.43;64.32
65553;BME280;72126;51.560;14.368;2023-11-21T10:32:32;99984.25;;;13.43;64.27
65553;BME280;72126;51.560;14.368;2023-11-21T10:34:58;99978.16;;;13.43;64.25
65553;BME280;72126;51.560;14.368;2023-11-21T10:37:23;99983.44;;;13.43;64.22
65553;BME280;72126;51.560;14.368;2023-11-21T10:39:49;99985.25;;;13.42;64.29
65553;BME280;72126;51.560;14.368;2023-11-21T10:42:14;99986.06;;;13.43;64.39
65553;BME280;72126;51.560;14.368;2023-11-21T10:44:41;99988.69;;;13.43;64.32
65553;BME280;72126;51.560;14.368;2023-11-21T10:47:08;99993.94;;;13.43;64.45
65553;BME280;72126;51.560;14.368;2023-11-21T10:49:33;99993.13;;;13.42;64.39
65553;BME280;72126;51.560;14.368;2023-11-21T10:51:59;99996.59;;;13.43;63.98
65553;BME280;72126;51.560;14.368;2023-11-21T10:54:25;99998.41;;;13.42;64.46
65553;BME280;72126;51.560;14.368;2023-11-21T10:56:56;99998.56;;;13.41;64.27
65553;BME280;72126;51.560;14.368;2023-11-21T10:59:22;100008.09;;;13.42;63.99
65553;BME280;72126;51.560;14.368;2023-11-21T11:01:48;100010.72;;;13.42;63.84
65553;BME280;72126;51.560;14.368;2023-11-21T11:04:14;100013.34;;;13.42;64.21
65553;BME280;72126;51.560;14.368;2023-11-21T11:06:42;100010.72;;;13.42;64.48
65553;BME280;72126;51.560;14.368;2023-11-21T11:09:12;100022.06;;;13.42;63.93
65553;BME280;72126;51.560;14.368;2023-11-21T11:11:42;100023.88;;;13.42;64.39
65553;BME280;72126;51.560;14.368;2023-11-21T11:14:11;100023.88;;;13.42;64.21
65553;BME280;72126;51.560;14.368;2023-11-21T11:16:38;100025.69;;;13.41;63.96
65553;BME280;72126;51.560;14.368;2023-11-21T11:19:04;100025.69;;;13.41;63.86
65553;BME280;72126;51.560;14.368;2023-11-21T11:21:51;100038.00;;;13.41;63.94
65553;BME280;72126;51.560;14.368;2023-11-21T11:24:36;100031.94;;;13.40;64.25
65553;BME280;72126;51.560;14.368;2023-11-21T11:30:02;100038.00;;;13.41;64.22
65553;BME280;72126;51.560;14.368;2023-11-21T11:35:27;100042.44;;;13.40;64.22
65553;BME280;72126;51.560;14.368;2023-11-21T11:37:55;100041.63;;;13.40;64.07
65553;BME280;72126;51.560;14.368;2023-11-21T11:40:21;100043.44;;;13.39;63.90
65553;BME280;72126;51.560;14.368;2023-11-21T11:42:57;100046.06;;;13.39;64.29
65553;BME280;72126;51.560;14.368;2023-11-21T11:45:22;100046.06;;;13.39;64.15
65553;BME280;72126;51.560;14.368;2023-11-21T11:47:47;100041.81;;;13.38;64.27
65553;BME280;72126;51.560;14.368;2023-11-21T11:50:13;100045.25;;;13.39;63.91
65553;BME280;72126;51.560;14.368;2023-11-21T11:52:40;100044.44;;;13.38;64.25
65553;BME280;72126;51.560;14.368;2023-11-21T11:55:08;100047.06;;;13.38;64.03
65553;BME280;72126;51.560;14.368;2023-11-21T11:57:34;100047.06;;;13.38;63.80
65553;BME280;72126;51.560;14.368;2023-11-21T12:00:15;100048.88;;;13.38;64.05
65553;BME280;72126;51.560;14.368;2023-11-21T12:02:40;100045.25;;;13.39;64.26
65553;BME280;72126;51.560;14.368;2023-11-21T12:05:14;100047.25;;;13.37;63.95
65553;BME280;72126;51.560;14.368;2023-11-21T12:10:20;100058.59;;;13.37;64.00
65553;BME280;72126;51.560;14.368;2023-11-21T12:12:49;100058.59;;;13.37;63.77
65553;BME280;72126;51.560;14.368;2023-11-21T12:15:15;100063.84;;;13.37;64.18
65553;BME280;72126;51.560;14.368;2023-11-21T12:17:42;100068.28;;;13.37;64.27
65553;BME280;72126;51.560;14.368;2023-11-21T12:20:08;100067.28;;;13.38;63.79
65553;BME280;72126;51.560;14.368;2023-11-21T12:22:33;100069.13;;;13.37;63.77
65553;BME280;72126;51.560;14.368;2023-11-21T12:24:58;100069.94;;;13.38;64.13
65553;BME280;72126;51.560;14.368;2023-11-21T12:27:24;100072.38;;;13.39;63.86
65553;BME280;72126;51.560;14.368;2023-11-21T12:29:49;100074.38;;;13.37;64.16
65553;BME280;72126;51.560;14.368;2023-11-21T12:32:14;100090.97;;;13.38;63.86
65553;BME280;72126;51.560;14.368;2023-11-21T12:34:39;100088.34;;;13.38;63.69
65553;BME280;72126;51.560;14.368;2023-11-21T12:37:05;100092.78;;;13.37;64.14
65553;BME280;72126;51.560;14.368;2023-11-21T12:39:31;100090.97;;;13.38;63.86
65553;BME280;72126;51.560;14.368;2023-11-21T12:41:56;100095.41;;;13.37;63.87
65553;BME280;72126;51.560;14.368;2023-11-21T12:44:22;100094.59;;;13.37;64.16
65553;BME280;72126;51.560;14.368;2023-11-21T12:46:47;100098.03;;;13.37;64.17
65553;BME280;72126;51.560;14.368;2023-11-21T12:49:12;100095.41;;;13.37;63.86